Time;durP1;ratioP1;P1;durP2;ratioP2;P2;SDS_P1;SDS_P2;PMS_P1;PMS_P2;Temp;Humidity;BMP_temperature;BMP_pressure;BME280_temperature;BME280_humidity;BME280_pressure;Samples;Min_cycle;Max_cycle;Signal;HPM_P1;HPM_P2
2024/04/07 00:01:21;;;;;;;1.60;1.50;;;15.90;96.40;;;;;;5054536;28;20467;-78
2024/04/07 00:03:47;;;;;;;1.67;1.10;;;15.80;96.10;;;;;;5054855;28;20459;-78
2024/04/07 00:06:14;;;;;;;1.60;1.50;;;15.60;96.90;;;;;;5054662;28;20515;-78
2024/04/07 00:08:40;;;;;;;5.23;2.10;;;15.50;96.60;;;;;;5055276;28;20483;-78
2024/04/07 00:11:07;;;;;;;2.37;1.70;;;15.40;97.00;;;;;;5054287;28;20460;-78
2024/04/07 00:13:33;;;;;;;1.70;1.60;;;15.30;97.20;;;;;;5055059;28;20314;-78
2024/04/07 00:16:01;;;;;;;1.70;1.60;;;15.20;97.50;;;;;;5054635;28;20463;-78
2024/04/07 00:18:27;;;;;;;2.30;1.63;;;15.10;98.20;;;;;;5054989;28;20225;-78
2024/04/07 00:21:01;;;;;;;2.13;1.53;;;15.00;98.70;;;;;;5055079;28;20460;-78
2024/04/07 00:23:27;;;;;;;1.30;1.20;;;14.90;98.60;;;;;;5055111;28;20235;-78
2024/04/07 00:25:54;;;;;;;1.43;1.13;;;14.80;98.30;;;;;;5054770;28;20464;-78
2024/04/07 00:28:20;;;;;;;1.57;1.47;;;14.70;98.10;;;;;;5053490;28;20483;-77
2024/04/07 00:30:47;;;;;;;1.97;1.63;;;14.70;98.30;;;;;;5054098;28;20470;-77
2024/04/07 00:33:14;;;;;;;1.47;1.23;;;14.70;98.30;;;;;;5061425;28;20489;-78
2024/04/07 00:35:40;;;;;;;1.97;1.60;;;14.70;98.00;;;;;;5053717;28;20502;-78
2024/04/07 00:38:06;;;;;;;1.47;1.37;;;14.70;98.70;;;;;;5053471;28;20577;-78
2024/04/07 00:40:33;;;;;;;2.53;1.50;;;14.60;98.70;;;;;;5053730;28;20463;-78
2024/04/07 00:42:59;;;;;;;1.33;1.23;;;14.60;98.40;;;;;;5053432;28;20204;-78
2024/04/07 00:45:25;;;;;;;1.50;1.30;;;14.50;99.10;;;;;;5053266;28;20460;-78
2024/04/07 00:47:51;;;;;;;2.93;1.80;;;14.40;99.80;;;;;;5054893;28;20221;-78
2024/04/07 00:50:20;;;;;;;1.10;1.00;;;14.30;99.60;;;;;;5053179;28;20999;-78
2024/04/07 00:52:46;;;;;;;1.60;1.50;;;14.30;99.70;;;;;;5053221;28;20606;-78
2024/04/07 00:55:12;;;;;;;1.33;1.23;;;14.20;98.90;;;;;;5052725;28;20463;-78
2024/04/07 00:57:38;;;;;;;3.77;1.80;;;14.20;99.50;;;;;;5053319;28;20228;-78
2024/04/07 01:00:06;;;;;;;1.87;1.33;;;14.10;98.90;;;;;;5053264;28;20463;-78
2024/04/07 01:02:32;;;;;;;2.03;1.83;;;14.20;99.40;;;;;;5052048;28;20455;-78
2024/04/07 01:04:59;;;;;;;2.47;1.50;;;14.10;99.70;;;;;;5052744;28;20507;-78
2024/04/07 01:07:26;;;;;;;1.63;1.50;;;14.10;98.70;;;;;;5052725;28;21014;-77
2024/04/07 01:09:53;;;;;;;2.47;1.73;;;14.10;99.70;;;;;;5053017;28;20973;-78
2024/04/07 01:12:24;;;;;;;1.30;1.10;;;14.10;98.40;;;;;;5051175;28;21018;-78
2024/04/07 01:14:51;;;;;;;1.33;1.20;;;14.10;97.00;;;;;;5052933;28;20468;-78
2024/04/07 01:17:17;;;;;;;2.90;1.40;;;14.10;98.70;;;;;;5052617;28;20487;-78
2024/04/07 01:19:45;;;;;;;2.17;1.97;;;14.20;98.10;;;;;;5052929;28;20845;-78
2024/04/07 01:22:12;;;;;;;1.93;1.63;;;14.30;98.10;;;;;;5065709;28;20208;-77
2024/04/07 01:24:40;;;;;;;1.63;1.50;;;14.30;97.80;;;;;;5052936;28;20565;-77
2024/04/07 01:27:05;;;;;;;2.50;1.40;;;14.40;98.20;;;;;;5052598;28;20484;-77
2024/04/07 01:29:32;;;;;;;1.30;1.20;;;14.30;97.50;;;;;;5052717;28;20467;-77
2024/04/07 01:31:58;;;;;;;1.60;1.17;;;14.30;97.90;;;;;;5052550;28;20201;-77
2024/04/07 01:34:25;;;;;;;1.60;1.33;;;14.30;96.00;;;;;;5052140;28;20475;-77
2024/04/07 01:36:50;;;;;;;1.50;1.40;;;14.40;97.20;;;;;;5052867;28;20482;-77
2024/04/07 01:39:17;;;;;;;2.10;1.23;;;14.50;95.40;;;;;;5052351;28;20459;-77
2024/04/07 01:41:44;;;;;;;1.93;1.53;;;14.70;94.40;;;;;;5052510;28;20201;-77
2024/04/07 01:44:12;;;;;;;2.47;1.53;;;15.00;93.20;;;;;;5051893;28;20496;-77
2024/04/07 01:46:37;;;;;;;2.00;1.40;;;15.40;92.60;;;;;;5052529;28;20471;-77
2024/04/07 01:49:04;;;;;;;2.27;1.37;;;15.80;92.20;;;;;;5052359;28;20524;-78
2024/04/07 01:51:30;;;;;;;1.70;1.10;;;16.10;91.70;;;;;;5051920;28;20213;-77
2024/04/07 01:53:56;;;;;;;1.50;1.40;;;16.30;91.60;;;;;;5052083;28;20483;-77
2024/04/07 01:56:22;;;;;;;1.63;1.20;;;16.50;91.10;;;;;;5052051;28;20213;-77
2024/04/07 01:58:50;;;;;;;1.70;1.43;;;16.70;91.10;;;;;;5052394;28;20546;-77
2024/04/07 02:01:16;;;;;;;1.47;1.37;;;16.80;91.00;;;;;;5051836;28;20216;-78
2024/04/07 02:03:43;;;;;;;2.20;1.07;;;17.00;90.70;;;;;;5054024;28;20459;-77
2024/04/07 02:06:08;;;;;;;1.43;1.30;;;17.10;90.50;;;;;;5053525;28;20201;-78
2024/04/07 02:08:35;;;;;;;1.57;1.30;;;17.30;90.30;;;;;;5052209;28;20493;-77
2024/04/07 02:11:01;;;;;;;1.33;1.13;;;17.40;90.30;;;;;;5052325;28;20212;-78
2024/04/07 02:13:27;;;;;;;1.77;1.30;;;17.60;90.60;;;;;;5052864;28;20487;-77
2024/04/07 02:15:55;;;;;;;1.33;1.10;;;17.60;90.50;;;;;;5054105;28;20209;-78
2024/04/07 02:18:21;;;;;;;1.47;1.27;;;17.60;90.40;;;;;;5050153;28;20927;-78
2024/04/07 02:20:51;;;;;;;2.07;1.33;;;17.70;90.30;;;;;;5052021;28;20491;-78
2024/04/07 02:23:18;;;;;;;2.60;1.53;;;17.70;90.30;;;;;;5052000;28;20505;-78
2024/04/07 02:25:43;;;;;;;1.30;1.13;;;17.80;90.20;;;;;;5051933;28;20452;-78
2024/04/07 02:28:10;;;;;;;2.40;1.60;;;17.90;90.30;;;;;;5051891;28;20574;-78
2024/04/07 02:30:36;;;;;;;5.37;1.77;;;17.90;90.70;;;;;;5051832;28;20209;-78
2024/04/07 02:33:04;;;;;;;2.00;1.47;;;17.90;90.40;;;;;;5051316;28;20574;-78
2024/04/07 02:35:31;;;;;;;3.27;1.40;;;18.00;90.50;;;;;;5050916;28;20685;-78
2024/04/07 02:37:58;;;;;;;1.03;0.90;;;18.00;90.50;;;;;;5051468;28;20483;-78
2024/04/07 02:40:24;;;;;;;1.77;1.30;;;18.00;90.50;;;;;;5051227;28;20463;-78
2024/04/07 02:42:52;;;;;;;1.33;1.13;;;18.00;90.40;;;;;;5051253;28;20463;-78
2024/04/07 02:48:05;;;;;;;1.50;1.30;;;18.20;90.60;;;;;;5051189;28;20478;-78
2024/04/07 02:50:32;;;;;;;1.30;1.10;;;18.20;90.60;;;;;;5050941;28;20451;-78
2024/04/07 02:52:58;;;;;;;1.67;1.13;;;18.20;90.70;;;;;;5051183;28;20483;-78
2024/04/07 02:55:25;;;;;;;1.57;1.47;;;18.10;90.70;;;;;;5050805;28;20912;-77
2024/04/07 02:57:51;;;;;;;5.63;1.30;;;18.20;90.90;;;;;;5051225;28;20491;-77
2024/04/07 03:00:17;;;;;;;1.43;1.33;;;18.20;91.00;;;;;;5051135;28;20881;-78
2024/04/07 03:02:44;;;;;;;2.37;1.20;;;18.10;91.10;;;;;;5051055;28;20202;-78
2024/04/07 03:05:12;;;;;;;2.13;1.30;;;18.10;91.00;;;;;;5050774;28;20578;-78
2024/04/07 03:07:38;;;;;;;1.00;0.90;;;18.20;91.00;;;;;;5050639;28;20999;-78
2024/04/07 03:10:06;;;;;;;1.13;1.03;;;18.20;91.10;;;;;;5050877;28;20550;-78
2024/04/07 03:12:32;;;;;;;1.30;1.10;;;18.30;91.10;;;;;;5050481;28;20510;-78
2024/04/07 03:15:01;;;;;;;1.93;1.60;;;18.40;91.00;;;;;;5050780;28;20464;-78
2024/04/07 03:17:27;;;;;;;2.70;1.30;;;18.40;90.90;;;;;;5050496;28;20483;-78
2024/04/07 03:19:54;;;;;;;1.30;1.20;;;18.40;90.90;;;;;;5056083;28;21030;-77
2024/04/07 03:22:21;;;;;;;1.20;1.07;;;18.50;91.00;;;;;;5051396;28;20458;-78
2024/04/07 03:24:48;;;;;;;6.20;1.70;;;18.50;90.90;;;;;;5054283;28;20471;-78
2024/04/07 03:27:14;;;;;;;1.50;1.40;;;18.50;90.90;;;;;;5050829;28;20506;-78
2024/04/07 03:29:41;;;;;;;1.53;1.40;;;18.40;91.10;;;;;;5050516;28;20825;-78
2024/04/07 03:32:07;;;;;;;1.53;1.40;;;18.40;91.10;;;;;;5050798;28;20463;-78
2024/04/07 03:34:34;;;;;;;1.43;1.07;;;18.40;91.30;;;;;;5050145;28;20467;-78
2024/04/07 03:37:00;;;;;;;1.70;1.60;;;18.30;91.70;;;;;;5050588;28;20225;-77
2024/04/07 03:39:28;;;;;;;1.60;1.10;;;18.20;91.70;;;;;;5050213;28;20460;-77
2024/04/07 03:41:54;;;;;;;1.67;1.00;;;18.20;91.70;;;;;;5050369;28;20462;-78
2024/04/07 03:44:21;;;;;;;2.03;1.53;;;18.20;91.80;;;;;;5050052;28;20976;-78
2024/04/07 03:46:47;;;;;;;2.90;1.23;;;18.20;91.90;;;;;;5050431;28;20217;-78
2024/04/07 03:49:13;;;;;;;1.20;1.10;;;18.20;91.90;;;;;;5050529;28;20960;-78
2024/04/07 03:51:39;;;;;;;1.93;1.37;;;18.20;92.20;;;;;;5050110;28;20459;-77
2024/04/07 03:54:06;;;;;;;1.30;1.20;;;18.20;92.20;;;;;;5050136;28;21027;-78
2024/04/07 03:56:33;;;;;;;1.47;1.30;;;18.10;92.20;;;;;;5050115;28;20205;-78
2024/04/07 03:59:00;;;;;;;1.77;1.13;;;18.10;92.40;;;;;;5050458;28;20475;-78
2024/04/07 04:01:26;;;;;;;1.43;1.33;;;18.10;92.60;;;;;;5050171;28;20459;-78
2024/04/07 04:03:54;;;;;;;1.67;1.40;;;18.00;92.50;;;;;;5050515;28;20463;-78
2024/04/07 04:06:20;;;;;;;3.00;1.80;;;17.90;92.50;;;;;;5050142;28;20838;-78
2024/04/07 04:08:46;;;;;;;1.87;1.30;;;17.90;92.70;;;;;;5050256;28;20532;-78
2024/04/07 04:11:12;;;;;;;2.27;1.30;;;17.80;92.80;;;;;;5050311;28;20209;-78
2024/04/07 04:13:43;;;;;;;1.77;1.57;;;17.80;92.90;;;;;;5049998;28;20494;-77
2024/04/07 04:16:08;;;;;;;1.50;1.30;;;17.70;92.90;;;;;;5050172;28;20460;-77
2024/04/07 04:18:35;;;;;;;2.33;1.20;;;17.70;93.00;;;;;;5049858;28;20514;-78
2024/04/07 04:21:01;;;;;;;2.23;1.10;;;17.60;93.20;;;;;;5050151;28;20581;-78
2024/04/07 04:23:27;;;;;;;1.57;1.20;;;17.60;93.40;;;;;;5049951;28;20464;-78
2024/04/07 04:25:54;;;;;;;1.10;1.00;;;17.50;93.40;;;;;;5050441;28;20685;-77
2024/04/07 04:28:21;;;;;;;1.30;1.20;;;17.40;93.70;;;;;;5046663;28;20549;-77
2024/04/07 04:30:54;;;;;;;2.40;1.70;;;17.40;93.80;;;;;;5050428;28;20831;-77
2024/04/07 04:33:21;;;;;;;1.40;1.27;;;17.30;93.80;;;;;;5046226;28;20509;-77
2024/04/07 04:35:47;;;;;;;2.00;1.40;;;17.30;94.00;;;;;;5049969;28;20463;-77
2024/04/07 04:38:14;;;;;;;1.53;1.13;;;17.20;94.00;;;;;;5051771;28;20487;-77
2024/04/07 04:40:40;;;;;;;1.53;1.43;;;17.10;94.20;;;;;;5054144;28;20213;-77
2024/04/07 04:43:07;;;;;;;1.47;1.17;;;17.10;94.70;;;;;;5054240;28;20475;-78
2024/04/07 04:45:33;;;;;;;1.10;0.93;;;17.00;94.50;;;;;;5053276;28;20778;-78
2024/04/07 04:48:01;;;;;;;1.87;1.43;;;16.90;94.70;;;;;;5053521;28;20552;-78
2024/04/07 04:50:26;;;;;;;1.43;1.33;;;16.90;94.40;;;;;;5053225;28;20201;-78
2024/04/07 04:52:53;;;;;;;1.67;1.43;;;16.80;94.70;;;;;;5053228;28;20491;-78
2024/04/07 04:55:19;;;;;;;1.10;1.00;;;16.80;95.00;;;;;;5053333;28;20229;-77
2024/04/07 04:57:48;;;;;;;3.73;1.60;;;16.70;95.00;;;;;;5053026;28;20598;-78
2024/04/07 05:00:14;;;;;;;1.90;1.70;;;16.80;94.70;;;;;;5053413;28;20666;-78
2024/04/07 05:02:41;;;;;;;1.20;1.10;;;16.70;94.70;;;;;;5052673;28;20464;-77
2024/04/07 05:05:09;;;;;;;1.20;1.10;;;16.70;94.60;;;;;;5053062;28;20487;-77
2024/04/07 05:07:37;;;;;;;1.77;1.17;;;16.60;94.60;;;;;;5052651;28;20622;-77
2024/04/07 05:10:03;;;;;;;2.90;2.13;;;16.60;94.80;;;;;;5053131;28;20492;-77
2024/04/07 05:12:30;;;;;;;1.77;1.20;;;16.60;94.40;;;;;;5052672;28;20467;-78
2024/04/07 05:14:56;;;;;;;1.43;1.33;;;16.70;94.50;;;;;;5052519;28;20844;-77
2024/04/07 05:17:23;;;;;;;1.40;1.30;;;16.70;94.60;;;;;;5052859;28;20483;-77
2024/04/07 05:19:49;;;;;;;1.63;1.50;;;16.80;94.30;;;;;;5052487;28;20471;-77
2024/04/07 05:22:17;;;;;;;1.47;1.30;;;16.80;94.20;;;;;;5052681;28;20493;-77
2024/04/07 05:24:43;;;;;;;1.10;1.00;;;16.80;94.00;;;;;;5052486;28;20940;-77
2024/04/07 05:27:10;;;;;;;1.70;1.27;;;16.80;94.30;;;;;;5052762;28;20912;-77
2024/04/07 05:29:37;;;;;;;1.57;1.20;;;16.90;94.10;;;;;;5052278;28;20464;-77
2024/04/07 05:32:04;;;;;;;1.50;1.40;;;16.80;94.20;;;;;;5052610;28;20475;-77
2024/04/07 05:34:29;;;;;;;1.50;1.20;;;16.90;95.00;;;;;;5052003;28;20495;-78
2024/04/07 05:36:57;;;;;;;2.03;1.60;;;16.80;94.90;;;;;;5052221;28;20483;-78
2024/04/07 05:39:24;;;;;;;2.90;1.37;;;16.80;94.90;;;;;;5052077;28;20217;-77
2024/04/07 05:41:50;;;;;;;1.90;1.30;;;16.80;94.70;;;;;;5052042;28;20499;-78
2024/04/07 05:44:16;;;;;;;1.50;1.20;;;16.70;95.00;;;;;;5052203;28;20452;-78
2024/04/07 05:46:43;;;;;;;2.07;1.30;;;16.70;95.50;;;;;;5052069;28;21020;-78
2024/04/07 05:49:08;;;;;;;1.63;1.20;;;16.60;96.60;;;;;;5051865;28;20215;-77
2024/04/07 05:51:35;;;;;;;3.47;1.10;;;16.50;96.60;;;;;;5051757;28;20468;-78
2024/04/07 05:54:01;;;;;;;4.87;1.50;;;16.40;96.80;;;;;;5051940;28;20217;-77
2024/04/07 05:56:29;;;;;;;2.73;1.30;;;16.30;97.90;;;;;;5055276;28;20486;-77
2024/04/07 05:58:55;;;;;;;1.50;1.33;;;16.10;98.00;;;;;;5051903;28;20205;-77
2024/04/07 06:01:21;;;;;;;1.77;1.37;;;16.00;98.50;;;;;;5052019;28;20472;-76
2024/04/07 06:03:47;;;;;;;1.40;1.30;;;16.00;99.00;;;;;;5051482;28;20582;-77
2024/04/07 06:06:14;;;;;;;2.40;1.73;;;15.90;98.30;;;;;;5051855;28;20467;-76
2024/04/07 06:08:39;;;;;;;1.20;1.10;;;15.90;98.60;;;;;;5051471;28;20225;-76
2024/04/07 06:11:06;;;;;;;2.63;1.23;;;15.90;98.90;;;;;;5051759;28;20475;-76
2024/04/07 06:13:33;;;;;;;1.37;1.27;;;15.90;99.10;;;;;;5051577;28;20217;-77
2024/04/07 06:16:00;;;;;;;2.20;1.60;;;16.00;98.70;;;;;;5051501;28;20526;-76
2024/04/07 06:18:26;;;;;;;2.07;1.87;;;16.00;99.60;;;;;;5051702;28;20483;-77
2024/04/07 06:20:53;;;;;;;1.53;1.40;;;16.10;99.90;;;;;;5051361;28;20831;-77
2024/04/07 06:23:19;;;;;;;2.43;1.87;;;16.10;99.90;;;;;;5051590;28;20619;-77
2024/04/07 06:25:47;;;;;;;1.60;1.47;;;16.20;99.90;;;;;;5051121;28;20463;-76
2024/04/07 06:28:12;;;;;;;1.23;1.13;;;16.20;99.80;;;;;;5051429;28;20548;-77
2024/04/07 06:30:40;;;;;;;1.67;1.47;;;16.30;99.80;;;;;;5050530;28;20459;-76
2024/04/07 06:33:06;;;;;;;1.60;1.40;;;16.30;99.70;;;;;;5050739;28;20221;-76
2024/04/07 06:35:33;;;;;;;2.60;1.43;;;16.30;99.90;;;;;;5051125;28;20463;-76
2024/04/07 06:37:59;;;;;;;1.50;1.20;;;16.30;99.90;;;;;;5051962;28;20491;-76
2024/04/07 06:40:26;;;;;;;1.70;1.60;;;16.30;99.90;;;;;;5061595;28;20471;-76
2024/04/07 06:42:52;;;;;;;1.67;1.30;;;16.40;99.90;;;;;;5050796;28;20467;-76
2024/04/07 06:45:18;;;;;;;2.97;2.00;;;16.40;99.90;;;;;;5049400;28;20464;-77
2024/04/07 06:47:45;;;;;;;1.60;1.20;;;16.40;99.90;;;;;;5045794;28;20224;-76
2024/04/07 06:50:12;;;;;;;1.97;1.63;;;16.40;99.90;;;;;;5050651;28;20463;-77
2024/04/07 06:52:38;;;;;;;3.30;2.00;;;16.40;99.90;;;;;;5047327;28;20463;-77
2024/04/07 06:55:06;;;;;;;2.43;1.70;;;16.40;99.90;;;;;;5050352;28;20486;-77
2024/04/07 06:57:33;;;;;;;1.40;1.30;;;16.50;99.90;;;;;;5051095;28;20648;-77
2024/04/07 06:59:59;;;;;;;2.33;1.60;;;16.50;99.90;;;;;;5048617;28;20460;-77
2024/04/07 07:02:25;;;;;;;2.43;1.70;;;16.70;99.90;;;;;;5049213;28;20689;-79
2024/04/07 07:04:53;;;;;;;2.53;1.50;;;16.80;99.90;;;;;;5049313;28;20467;-78
2024/04/07 07:07:19;;;;;;;2.00;1.80;;;17.00;99.90;;;;;;5049676;28;20232;-78
2024/04/07 07:09:46;;;;;;;3.30;1.77;;;17.10;99.90;;;;;;5049057;28;20460;-79
2024/04/07 07:12:11;;;;;;;1.30;1.20;;;17.20;99.90;;;;;;5049484;28;20760;-78
2024/04/07 07:14:38;;;;;;;1.57;1.37;;;17.20;99.90;;;;;;5049518;28;20492;-78
2024/04/07 07:17:04;;;;;;;2.80;2.40;;;17.30;99.90;;;;;;5050704;28;20221;-78
2024/04/07 07:19:31;;;;;;;1.70;1.60;;;17.40;99.90;;;;;;5050919;28;20463;-78
2024/04/07 07:21:58;;;;;;;3.10;1.70;;;17.60;99.90;;;;;;5050484;28;20456;-78
2024/04/07 07:24:25;;;;;;;1.47;1.30;;;17.80;99.90;;;;;;5050657;28;20467;-78
2024/04/07 07:26:50;;;;;;;1.87;1.60;;;17.80;99.40;;;;;;5051187;28;20486;-77
2024/04/07 07:29:17;;;;;;;2.40;1.97;;;17.80;99.50;;;;;;5053987;28;20466;-78
2024/04/07 07:31:43;;;;;;;3.50;1.90;;;17.80;99.70;;;;;;5057890;28;20217;-78
2024/04/07 07:34:09;;;;;;;6.30;1.60;;;18.00;99.90;;;;;;5051456;28;20490;-77
2024/04/07 07:36:35;;;;;;;2.10;1.57;;;18.10;99.90;;;;;;5050544;28;20212;-77
2024/04/07 07:39:05;;;;;;;1.93;1.40;;;18.20;99.90;;;;;;5050006;28;20467;-78
2024/04/07 07:41:31;;;;;;;1.20;1.10;;;18.40;99.90;;;;;;5049183;28;20672;-78
2024/04/07 07:43:57;;;;;;;1.23;1.13;;;18.50;99.90;;;;;;5057859;28;20454;-77
2024/04/07 07:46:23;;;;;;;1.73;1.43;;;18.60;99.90;;;;;;5050274;28;20466;-77
2024/04/07 07:48:50;;;;;;;1.40;1.30;;;18.60;98.30;;;;;;5049474;28;20463;-77
2024/04/07 07:51:17;;;;;;;4.73;1.57;;;18.90;98.50;;;;;;5050030;28;20212;-77
2024/04/07 07:53:44;;;;;;;2.67;1.70;;;19.30;99.60;;;;;;5050229;28;20582;-77
2024/04/07 07:56:11;;;;;;;2.63;1.60;;;20.00;99.10;;;;;;5050028;28;20477;-78
2024/04/07 07:58:38;;;;;;;1.93;1.60;;;20.70;97.30;;;;;;5050030;28;20988;-77
2024/04/07 08:01:05;;;;;;;3.80;1.53;;;21.20;94.70;;;;;;5049836;28;20470;-77
2024/04/07 08:03:32;;;;;;;1.87;1.40;;;21.40;94.50;;;;;;5049244;28;20464;-78
2024/04/07 08:05:58;;;;;;;2.40;1.63;;;21.60;94.30;;;;;;5049407;28;20477;-78
2024/04/07 08:08:24;;;;;;;1.30;1.20;;;21.70;94.20;;;;;;5050157;28;20491;-77
2024/04/07 08:10:50;;;;;;;3.13;1.47;;;21.90;93.90;;;;;;5050100;28;20466;-77
2024/04/07 08:13:18;;;;;;;3.70;1.77;;;22.10;93.30;;;;;;5054272;28;20467;-80
2024/04/07 08:15:46;;;;;;;2.53;1.47;;;22.10;92.60;;;;;;5053681;28;20205;-79
2024/04/07 08:18:13;;;;;;;5.47;1.30;;;22.20;92.30;;;;;;5053803;28;20486;-79
2024/04/07 08:20:41;;;;;;;2.17;1.40;;;22.20;92.00;;;;;;5054835;28;20459;-78
2024/04/07 08:23:07;;;;;;;2.07;1.37;;;22.20;91.90;;;;;;5054453;28;20459;-78
2024/04/07 08:25:34;;;;;;;1.73;1.40;;;22.40;92.40;;;;;;5055140;28;20459;-78
2024/04/07 08:28:01;;;;;;;1.43;1.23;;;22.50;92.50;;;;;;5054484;28;20856;-78
2024/04/07 08:30:29;;;;;;;2.80;1.70;;;22.70;93.10;;;;;;5053977;28;20883;-79
2024/04/07 08:32:56;;;;;;;3.03;1.70;;;22.70;92.20;;;;;;5054536;28;20459;-78
2024/04/07 08:35:23;;;;;;;2.30;1.63;;;22.70;91.90;;;;;;5055986;28;20475;-78
2024/04/07 08:37:50;;;;;;;2.87;1.40;;;22.90;92.80;;;;;;5055036;28;20475;-78
2024/04/07 08:40:16;;;;;;;1.90;1.40;;;23.00;93.10;;;;;;5054168;28;20478;-78
2024/04/07 08:42:44;;;;;;;1.30;1.20;;;23.00;92.50;;;;;;5054370;28;20467;-79
2024/04/07 08:45:11;;;;;;;2.20;1.60;;;22.90;92.30;;;;;;5053241;28;20467;-78
2024/04/07 08:47:39;;;;;;;3.40;2.07;;;22.90;91.00;;;;;;5054555;28;20483;-78
2024/04/07 08:50:07;;;;;;;1.43;1.33;;;22.90;91.70;;;;;;5053553;28;20562;-78
2024/04/07 08:52:33;;;;;;;1.50;1.30;;;22.90;91.30;;;;;;5055105;28;20485;-78
2024/04/07 08:54:59;;;;;;;2.50;1.50;;;22.70;91.50;;;;;;5053404;28;20494;-79
2024/04/07 08:57:26;;;;;;;5.07;1.57;;;22.70;91.80;;;;;;5054050;28;20486;-77
2024/04/07 08:59:53;;;;;;;1.60;1.50;;;22.90;91.60;;;;;;5052262;28;20841;-78
2024/04/07 09:02:21;;;;;;;3.20;1.70;;;23.10;92.60;;;;;;5053569;28;20537;-78
2024/04/07 09:04:48;;;;;;;1.83;1.40;;;23.30;91.60;;;;;;5053475;28;20495;-78
2024/04/07 09:07:14;;;;;;;2.33;1.30;;;23.60;90.00;;;;;;5053028;28;20583;-79
2024/04/07 09:09:40;;;;;;;1.53;1.27;;;24.10;89.90;;;;;;5055017;28;20467;-79
2024/04/07 09:12:08;;;;;;;3.53;1.40;;;24.70;91.40;;;;;;5054313;28;20470;-78
2024/04/07 09:14:34;;;;;;;6.50;3.23;;;25.40;91.10;;;;;;5053271;28;20316;-80
2024/04/07 09:17:02;;;;;;;2.57;1.90;;;26.00;88.00;;;;;;5053592;28;20914;-79
2024/04/07 09:19:30;;;;;;;2.50;1.43;;;26.60;87.40;;;;;;5053811;28;20463;-79
2024/04/07 09:21:58;;;;;;;2.80;1.47;;;26.70;88.20;;;;;;5053659;28;20491;-79
2024/04/07 09:24:24;;;;;;;1.93;1.40;;;26.70;86.20;;;;;;5053326;28;20479;-79
2024/04/07 09:26:52;;;;;;;3.13;1.43;;;27.00;85.70;;;;;;5053758;28;20541;-79
2024/04/07 09:29:18;;;;;;;4.87;1.50;;;26.90;86.80;;;;;;5053508;28;20463;-78
2024/04/07 09:31:44;;;;;;;2.70;1.40;;;26.80;86.70;;;;;;5053948;28;20470;-78
2024/04/07 09:34:10;;;;;;;3.87;1.73;;;26.80;87.30;;;;;;5053697;28;20761;-79
2024/04/07 09:36:37;;;;;;;3.53;1.73;;;26.60;86.40;;;;;;5055185;28;20463;-79
2024/04/07 09:39:04;;;;;;;2.23;1.23;;;26.40;86.50;;;;;;5054030;28;20696;-79
2024/04/07 09:41:32;;;;;;;2.03;1.33;;;26.30;87.20;;;;;;5054993;28;20521;-79
2024/04/07 09:44:03;;;;;;;2.17;1.37;;;26.20;88.10;;;;;;5053620;28;20857;-80
2024/04/07 09:46:35;;;;;;;4.93;1.57;;;25.80;89.80;;;;;;5054093;28;20482;-80
2024/04/07 09:49:02;;;;;;;2.70;1.53;;;25.60;90.40;;;;;;5054208;28;20468;-79
2024/04/07 09:51:32;;;;;;;3.70;1.43;;;25.20;90.60;;;;;;5053565;28;20830;-79
2024/04/07 09:54:05;;;;;;;2.33;1.40;;;25.00;90.40;;;;;;5053406;28;20849;-79
2024/04/07 09:56:33;;;;;;;3.60;1.90;;;25.00;90.60;;;;;;5054170;28;20886;-79
2024/04/07 09:59:00;;;;;;;2.90;1.30;;;25.10;90.60;;;;;;5053234;28;20499;-79
2024/04/07 10:01:27;;;;;;;1.93;1.60;;;25.60;90.50;;;;;;5053389;28;20460;-79
2024/04/07 10:03:53;;;;;;;1.97;1.47;;;26.30;89.90;;;;;;5053261;28;20983;-80
2024/04/07 10:06:21;;;;;;;6.27;2.83;;;27.00;88.40;;;;;;5053330;28;20460;-79
2024/04/07 10:08:47;;;;;;;2.33;1.40;;;27.70;87.10;;;;;;5055010;28;20233;-79
2024/04/07 10:11:19;;;;;;;3.67;1.70;;;28.40;86.20;;;;;;5054491;28;20474;-79
2024/04/07 10:13:45;;;;;;;2.27;1.37;;;29.20;87.30;;;;;;5053438;28;20470;-79
2024/04/07 10:16:14;;;;;;;2.47;1.90;;;29.80;83.60;;;;;;5053287;28;20472;-79
2024/04/07 10:18:41;;;;;;;4.17;1.60;;;30.20;82.70;;;;;;5053492;28;20498;-79
2024/04/07 10:21:08;;;;;;;1.20;1.10;;;30.50;80.70;;;;;;5052629;28;20474;-79
2024/04/07 10:23:35;;;;;;;4.80;1.57;;;30.70;80.60;;;;;;5053652;28;20474;-79
2024/04/07 10:26:04;;;;;;;2.27;1.70;;;31.10;79.90;;;;;;5052793;28;20463;-79
2024/04/07 10:28:44;;;;;;;2.83;1.50;;;31.60;78.20;;;;;;5052148;28;20540;-78
2024/04/07 10:31:11;;;;;;;2.40;1.50;;;31.30;76.60;;;;;;5051442;28;20499;-79
2024/04/07 10:33:37;;;;;;;1.70;1.47;;;31.50;78.70;;;;;;5052033;28;20490;-79
2024/04/07 10:36:06;;;;;;;1.57;1.37;;;32.00;77.20;;;;;;5050544;28;20472;-79
2024/04/07 10:38:43;;;;;;;1.30;1.20;;;32.60;77.50;;;;;;5051996;28;20279;-79
2024/04/07 10:41:17;;;;;;;6.30;1.70;;;32.50;75.70;;;;;;5051966;28;20459;-78
2024/04/07 10:43:45;;;;;;;2.87;1.33;;;32.40;77.30;;;;;;5052666;28;20850;-79
2024/04/07 10:46:12;;;;;;;2.60;1.30;;;32.30;75.40;;;;;;5051839;28;20467;-79
2024/04/07 10:48:38;;;;;;;5.33;1.30;;;32.00;77.30;;;;;;5052573;28;21030;-79
2024/04/07 10:51:06;;;;;;;3.53;1.20;;;31.40;76.90;;;;;;5055347;28;20463;-80
2024/04/07 10:53:32;;;;;;;2.53;1.60;;;30.90;80.40;;;;;;5066582;28;20553;-79
2024/04/07 10:55:58;;;;;;;1.90;1.40;;;30.40;77.40;;;;;;5055376;28;20554;-80
2024/04/07 10:58:24;;;;;;;8.73;2.70;;;30.40;79.50;;;;;;5052414;28;20229;-79
2024/04/07 11:00:52;;;;;;;2.23;1.47;;;30.60;78.00;;;;;;5052941;28;20984;-80
2024/04/07 11:03:18;;;;;;;2.13;1.60;;;30.30;78.10;;;;;;5052251;28;20213;-79
2024/04/07 11:05:46;;;;;;;1.80;1.60;;;30.50;79.00;;;;;;5052144;28;20531;-79
2024/04/07 11:08:11;;;;;;;3.60;1.83;;;30.70;80.10;;;;;;5051947;28;20486;-78
2024/04/07 11:10:39;;;;;;;2.80;1.57;;;30.70;79.20;;;;;;5052338;28;20460;-79
2024/04/07 11:13:06;;;;;;;3.73;2.17;;;31.10;78.30;;;;;;5060406;28;20677;-80
2024/04/07 11:15:33;;;;;;;3.40;2.53;;;31.40;77.30;;;;;;5056539;28;20506;-79
2024/04/07 11:18:11;;;;;;;3.70;1.80;;;31.50;77.90;;;;;;5057706;28;20491;-79
2024/04/07 11:20:38;;;;;;;1.30;1.13;;;31.50;77.80;;;;;;5052049;28;20948;-78
2024/04/07 11:23:04;;;;;;;1.40;1.30;;;31.40;78.00;;;;;;5056902;28;20956;-80
2024/04/07 11:25:30;;;;;;;1.77;1.40;;;31.50;74.20;;;;;;5052001;28;20835;-79
2024/04/07 11:27:56;;;;;;;3.23;1.87;;;31.40;77.70;;;;;;5051598;28;21032;-80
2024/04/07 11:30:33;;;;;;;3.30;1.50;;;31.90;77.10;;;;;;5052078;28;20475;-79
2024/04/07 11:33:03;;;;;;;2.30;1.67;;;32.30;77.80;;;;;;5052954;28;20200;-80
2024/04/07 11:35:30;;;;;;;3.27;1.60;;;32.60;76.80;;;;;;5039448;28;20476;-79
2024/04/07 11:37:56;;;;;;;2.70;1.70;;;33.10;76.70;;;;;;5034642;28;20487;-79
2024/04/07 11:40:23;;;;;;;1.90;1.70;;;33.00;75.70;;;;;;5052513;28;20463;-80
2024/04/07 11:42:49;;;;;;;4.67;1.57;;;33.10;75.80;;;;;;5053738;28;20200;-79
2024/04/07 11:45:16;;;;;;;3.37;1.90;;;32.90;75.00;;;;;;5051334;28;20843;-79
2024/04/07 11:47:42;;;;;;;2.47;1.60;;;32.60;75.40;;;;;;5055311;28;20225;-80
2024/04/07 11:50:10;;;;;;;3.10;1.60;;;32.60;75.50;;;;;;5056117;28;20459;-80
2024/04/07 11:52:36;;;;;;;1.80;1.53;;;32.30;73.70;;;;;;5055661;28;20474;-79
2024/04/07 11:55:04;;;;;;;2.80;1.50;;;32.30;75.00;;;;;;5055342;28;20490;-79
2024/04/07 11:57:30;;;;;;;2.60;1.63;;;32.10;76.00;;;;;;5055457;28;20480;-79
2024/04/07 11:59:57;;;;;;;3.23;1.40;;;31.80;75.90;;;;;;5055474;28;20913;-78
2024/04/07 12:02:22;;;;;;;2.03;1.77;;;31.60;77.10;;;;;;5055796;28;20948;-78
2024/04/07 12:04:49;;;;;;;4.10;2.10;;;31.30;74.50;;;;;;5057933;28;20467;-79
2024/04/07 12:07:17;;;;;;;2.70;1.90;;;31.20;77.20;;;;;;5055999;28;20233;-79
2024/04/07 12:09:44;;;;;;;2.03;1.70;;;31.10;77.40;;;;;;5069966;28;20959;-79
2024/04/07 12:12:10;;;;;;;2.47;1.40;;;30.90;76.50;;;;;;5056613;28;20983;-78
2024/04/07 12:14:36;;;;;;;3.97;2.23;;;31.30;77.90;;;;;;5061595;28;20475;-78
2024/04/07 12:17:03;;;;;;;2.87;1.53;;;31.60;77.40;;;;;;5055447;28;20233;-79
2024/04/07 12:19:30;;;;;;;2.33;1.73;;;31.70;75.90;;;;;;5058638;28;20466;-76
2024/04/07 12:21:57;;;;;;;4.60;1.60;;;32.00;77.40;;;;;;5061714;28;20485;-77
2024/04/07 12:24:25;;;;;;;1.90;1.50;;;32.50;77.60;;;;;;5057032;28;20856;-76
2024/04/07 12:26:51;;;;;;;5.30;2.00;;;32.40;77.20;;;;;;5071600;28;20486;-76
2024/04/07 12:29:18;;;;;;;3.07;1.77;;;32.10;74.50;;;;;;5056592;28;20466;-77
2024/04/07 12:31:44;;;;;;;3.63;1.60;;;31.90;74.50;;;;;;5064647;28;20546;-76
2024/04/07 12:34:11;;;;;;;2.53;1.60;;;32.00;75.90;;;;;;5062263;28;20553;-76
2024/04/07 12:36:37;;;;;;;2.13;1.73;;;32.00;76.80;;;;;;5053456;28;20205;-77
2024/04/07 12:39:06;;;;;;;4.27;2.10;;;32.20;76.20;;;;;;5054204;28;20471;-76
2024/04/07 12:41:34;;;;;;;2.27;1.70;;;32.00;76.50;;;;;;5054377;28;20205;-76
2024/04/07 12:44:01;;;;;;;2.27;1.50;;;31.70;74.20;;;;;;5053737;28;20471;-80
2024/04/07 12:46:27;;;;;;;3.47;1.50;;;31.20;76.50;;;;;;5053568;28;20456;-79
2024/04/07 12:48:54;;;;;;;3.20;1.70;;;30.60;77.90;;;;;;5037624;28;20479;-79